Time;durP1;ratioP1;P1;durP2;ratioP2;P2;SDS_P1;SDS_P2;PMS_P1;PMS_P2;Temp;Humidity;BMP_temperature;BMP_pressure;BME280_temperature;BME280_humidity;BME280_pressure;Samples;Min_cycle;Max_cycle;Signal;HPM_P1;HPM_P2
2022/06/08 07:35:23;;;;;;;4.18;1.25;;;;;;;21.97;57.37;98501.09;5085293;27;20110;-86
2022/06/08 07:37:52;;;;;;;7.65;1.38;;;;;;;22.42;60.81;98497.50;5103736;28;20142;-87
2022/06/08 07:40:19;;;;;;;4.40;1.35;;;;;;;22.49;58.11;98491.66;5083256;28;20520;-88
2022/06/08 07:42:46;;;;;;;3.55;1.45;;;;;;;22.56;58.71;98483.91;5088945;28;20139;-87
2022/06/08 07:45:13;;;;;;;4.75;0.98;;;;;;;22.53;60.13;98492.78;5089731;28;20403;-87
2022/06/08 07:50:23;;;;;;;4.63;1.23;;;;;;;22.78;55.31;98486.34;5088214;28;20067;-87
2022/06/08 07:52:50;;;;;;;5.38;1.15;;;;;;;22.64;56.96;98482.50;5088831;28;20059;-86
2022/06/08 07:55:17;;;;;;;4.57;1.20;;;;;;;22.48;58.43;98487.25;5083823;28;20505;-86
2022/06/08 07:57:47;;;;;;;7.10;1.27;;;;;;;22.71;57.68;98479.44;5083910;28;20062;-85
2022/06/08 08:00:15;;;;;;;9.38;1.38;;;;;;;22.58;57.56;98464.22;5102046;28;20518;-88
2022/06/08 08:02:42;;;;;;;7.18;1.23;;;;;;;22.47;60.35;98468.97;5095933;28;20074;-88
2022/06/08 08:05:11;;;;;;;2.90;0.90;;;;;;;23.02;54.05;98469.09;5121870;28;20052;-87
2022/06/08 08:07:43;;;;;;;8.32;1.10;;;;;;;23.05;54.31;98473.22;5109652;28;20029;-87
2022/06/08 08:10:16;;;;;;;3.95;0.90;;;;;;;22.90;54.30;98463.88;5091984;28;20048;-83
2022/06/08 08:12:43;;;;;;;4.38;1.33;;;;;;;22.86;52.57;98448.09;5088875;28;20045;-84
2022/06/08 08:15:10;;;;;;;10.02;0.93;;;;;;;23.15;52.39;98437.16;5097196;28;20071;-84
2022/06/08 08:17:37;;;;;;;4.72;1.10;;;;;;;22.92;51.53;98460.81;5105755;28;20048;-85
2022/06/08 08:20:05;;;;;;;7.43;0.90;;;;;;;22.80;54.88;98464.72;5111271;28;20109;-83
2022/06/08 08:22:33;;;;;;;8.80;1.40;;;;;;;22.97;57.33;98453.31;5109216;28;20048;-85
2022/06/08 08:25:04;;;;;;;5.05;1.77;;;;;;;22.75;51.65;98450.06;5106983;28;20054;-85
2022/06/08 08:27:30;;;;;;;4.28;0.80;;;;;;;22.68;52.10;98447.59;5103700;28;20076;-85
2022/06/08 08:29:57;;;;;;;3.97;1.20;;;;;;;22.08;53.33;98448.22;5109828;28;20506;-85
2022/06/08 08:32:24;;;;;;;4.35;1.42;;;;;;;21.96;56.48;98457.94;5091310;28;20121;-85
2022/06/08 08:34:52;;;;;;;4.75;1.00;;;;;;;21.53;58.64;98445.19;5088636;28;20127;-85
2022/06/08 08:37:19;;;;;;;5.95;0.90;;;;;;;21.40;61.17;98429.09;5088048;28;20054;-84
2022/06/08 08:39:46;;;;;;;3.33;1.00;;;;;;;22.00;58.25;98442.44;5088385;28;20075;-84
2022/06/08 08:42:22;;;;;;;3.17;1.00;;;;;;;22.25;54.16;98424.94;5087013;28;20479;-84
2022/06/08 08:44:52;;;;;;;3.60;1.00;;;;;;;22.43;54.93;98409.72;5084939;28;20060;-85
2022/06/08 08:47:24;;;;;;;;;;;;;;;22.67;52.69;98437.59;5081142;28;20102;-86
2022/06/08 08:49:55;;;;;;;4.07;0.80;;;;;;;22.03;56.53;98415.03;5090133;28;19980;-84
2022/06/08 08:52:31;;;;;;;7.47;2.53;;;;;;;21.72;59.06;98428.88;5068908;28;20572;-83
2022/06/08 08:55:02;;;;;;;2.70;1.17;;;;;;;22.06;60.18;98414.47;5069982;28;20087;-84
2022/06/08 08:57:37;;;;;;;3.97;1.20;;;;;;;21.91;54.54;98425.56;5065780;28;20080;-87
2022/06/08 09:00:15;;;;;;;4.65;0.88;;;;;;;21.91;52.24;98420.03;5067562;28;20435;-85
2022/06/08 09:05:27;;;;;;;3.28;0.95;;;;;;;22.78;57.02;98402.41;5061608;28;20064;-85
2022/06/08 09:07:56;;;;;;;7.10;1.10;;;;;;;22.91;53.15;98412.88;5072016;28;20249;-84
2022/06/08 09:10:24;;;;;;;3.05;0.90;;;;;;;23.17;51.26;98392.53;5067030;28;20044;-86
2022/06/08 09:12:53;;;;;;;2.28;0.90;;;;;;;23.01;52.40;98392.59;5062656;28;20045;-85
2022/06/08 09:15:48;;;;;;;6.32;1.02;;;;;;;23.10;52.99;98382.59;5066307;28;20036;-84
2022/06/08 09:18:21;;;;;;;2.95;1.05;;;;;;;23.46;53.10;98395.41;5069164;28;20075;-85
2022/06/08 09:20:48;;;;;;;2.85;1.02;;;;;;;24.09;49.87;98394.63;5073437;28;20105;-85
2022/06/08 09:23:27;;;;;;;3.63;1.00;;;;;;;24.01;46.96;98389.69;5070870;28;20123;-85
2022/06/08 09:26:10;;;;;;;2.75;0.85;;;;;;;23.71;47.96;98376.88;5062039;28;20049;-85
2022/06/08 09:28:39;;;;;;;2.95;0.80;;;;;;;22.70;50.07;98394.66;5069563;28;20508;-84
2022/06/08 09:31:06;;;;;;;2.80;1.00;;;;;;;22.90;52.42;98380.72;5073338;28;20063;-86
2022/06/08 09:33:35;;;;;;;3.22;1.00;;;;;;;23.14;48.35;98366.22;5084578;28;20063;-85
2022/06/08 09:36:05;;;;;;;9.65;1.23;;;;;;;23.91;48.57;98379.50;5075663;28;20502;-84
2022/06/08 09:38:34;;;;;;;;;;;;;;;24.03;47.76;98363.28;5073637;28;20372;-85
2022/06/08 09:41:10;;;;;;;5.05;0.88;;;;;;;23.73;49.91;98349.69;5070533;28;19924;-84
2022/06/08 09:43:54;;;;;;;3.30;1.08;;;;;;;23.09;45.97;98344.88;5094227;28;20142;-85
2022/06/08 09:51:25;;;;;;;3.88;0.77;;;;;;;23.13;47.81;98370.09;5094050;28;20048;-83
2022/06/08 09:52:27;;;;;;;7.80;1.15;;;;;;;23.59;49.59;98357.84;5079715;28;20059;-86
2022/06/08 09:55:08;;;;;;;3.05;0.95;;;;;;;23.50;50.82;98340.97;5064563;28;20110;-84
2022/06/08 09:57:42;;;;;;;2.88;0.82;;;;;;;24.03;48.18;98351.38;5074702;28;20040;-83
2022/06/08 10:00:19;;;;;;;6.53;0.98;;;;;;;23.71;47.05;98347.22;5058859;28;20045;-84
2022/06/08 10:02:57;;;;;;;3.17;0.98;;;;;;;23.85;49.09;98334.31;5060611;28;20111;-82
2022/06/08 10:05:35;;;;;;;3.78;0.93;;;;;;;23.32;46.70;98334.22;5053473;28;20056;-83
2022/06/08 10:08:16;;;;;;;3.10;0.90;;;;;;;22.62;47.69;98319.34;5051921;28;20407;-83
2022/06/08 10:10:47;;;;;;;3.88;0.73;;;;;;;23.14;50.65;98308.00;5061480;28;20048;-83
2022/06/08 10:13:20;;;;;;;3.70;0.80;;;;;;;23.82;48.03;98321.00;5067645;28;20052;-83
2022/06/08 10:15:53;;;;;;;4.68;0.70;;;;;;;24.18;44.74;98320.66;5072038;28;20040;-83
2022/06/08 10:18:24;;;;;;;4.72;0.80;;;;;;;24.15;46.60;98306.53;5072296;28;20084;-84
2022/06/08 10:20:55;;;;;;;4.35;1.00;;;;;;;23.45;43.12;98316.06;5070739;28;20341;-83
2022/06/08 10:23:35;;;;;;;6.72;0.77;;;;;;;23.68;49.03;98317.25;5069808;28;20041;-83
2022/06/08 10:26:08;;;;;;;4.88;0.80;;;;;;;23.73;46.07;98319.16;5062238;28;20407;-82
2022/06/08 10:28:41;;;;;;;2.33;0.70;;;;;;;23.45;46.97;98311.34;5073857;28;20044;-83
2022/06/08 10:31:19;;;;;;;2.38;0.90;;;;;;;23.36;48.04;98307.53;5061654;28;20048;-82
2022/06/08 10:33:52;;;;;;;3.45;0.80;;;;;;;23.82;50.04;98307.13;5056944;28;20459;-82
2022/06/08 10:36:19;;;;;;;4.03;1.15;;;;;;;24.02;47.50;98299.75;5055830;28;20056;-83
2022/06/08 10:38:47;;;;;;;2.47;0.68;;;;;;;24.07;46.88;98296.06;5058043;28;20487;-83
2022/06/08 10:44:26;;;;;;;4.07;0.98;;;;;;;25.00;42.64;98287.38;5075852;28;20418;-85
2022/06/08 10:46:54;;;;;;;4.72;1.48;;;;;;;25.63;43.59;98283.31;5056101;28;20059;-85
2022/06/08 10:49:41;;;;;;;7.20;0.75;;;;;;;25.86;43.37;98292.63;5073104;28;20075;-83
2022/06/08 10:52:17;;;;;;;3.05;1.00;;;;;;;25.79;42.18;98265.19;5078767;28;20057;-83
2022/06/08 10:54:54;;;;;;;3.38;1.10;;;;;;;25.51;44.46;98281.00;5065742;28;20044;-84
2022/06/08 10:57:42;;;;;;;4.25;0.90;;;;;;;24.94;42.01;98278.28;5054026;28;20050;-84
2022/06/08 11:00:46;;;;;;;3.95;1.05;;;;;;;24.68;43.00;98264.75;5062648;28;20049;-84
2022/06/08 11:03:55;;;;;;;3.28;0.85;;;;;;;25.00;41.96;98254.84;5064299;28;20323;-81
2022/06/08 11:06:55;;;;;;;5.68;1.33;;;;;;;25.37;43.22;98258.72;5071350;28;20051;-85
2022/06/08 11:09:22;;;;;;;;;;;;;;;24.98;43.42;98250.72;5050664;28;20107;-85
2022/06/08 11:12:03;;;;;;;4.15;0.90;;;;;;;24.42;41.48;98249.53;5062292;28;19930;-84
2022/06/08 11:14:33;;;;;;;4.00;0.95;;;;;;;24.12;40.40;98235.75;5066077;28;20044;-85
2022/06/08 11:17:02;;;;;;;;;;;;;;;24.19;42.66;98247.34;5078466;28;20131;-85
2022/06/08 11:19:34;;;;;;;3.03;0.60;;;;;;;23.71;42.94;98224.28;5082358;28;19928;-85
2022/06/08 11:22:10;;;;;;;3.38;0.80;;;;;;;23.56;42.26;98239.13;5060461;28;20051;-84
2022/06/08 11:24:46;;;;;;;2.20;0.80;;;;;;;23.43;42.87;98233.16;5070560;28;20044;-85
2022/06/08 11:27:33;;;;;;;1.35;0.70;;;;;;;23.56;46.92;98228.88;5060102;28;20048;-84
2022/06/08 11:30:01;;;;;;;2.92;0.95;;;;;;;23.39;47.45;98228.50;5062711;28;20523;-85
2022/06/08 11:33:11;;;;;;;4.57;0.95;;;;;;;23.83;43.63;98217.22;5062741;28;20118;-85
2022/06/08 11:35:57;;;;;;;3.22;0.95;;;;;;;24.45;43.82;98233.13;5055777;28;20095;-86
2022/06/08 11:39:03;;;;;;;;;;;;;;;;;;;;;
2022/06/08 11:41:37;;;;;;;4.05;0.68;;;;;;;24.25;42.59;98217.53;5060117;28;20075;-85
2022/06/08 11:44:12;;;;;;;4.50;0.80;;;;;;;24.06;44.06;98216.69;5056772;28;20448;-84
2022/06/08 11:46:43;;;;;;;5.85;0.93;;;;;;;24.03;43.66;98212.56;5061192;28;20076;-84
2022/06/08 11:49:31;;;;;;;1.58;0.70;;;;;;;23.75;41.10;98205.94;5080349;28;20140;-84
2022/06/08 11:51:59;;;;;;;3.72;0.90;;;;;;;23.71;41.80;98202.94;5073145;28;20040;-85
2022/06/08 11:54:31;;;;;;;3.20;0.70;;;;;;;23.81;43.20;98208.34;5063776;28;20064;-85
2022/06/08 11:57:04;;;;;;;6.30;0.88;;;;;;;24.78;41.69;98218.50;5073775;28;20404;-83
2022/06/08 11:59:36;;;;;;;1.45;0.70;;;;;;;24.67;41.19;98206.72;5060174;28;20067;-84
2022/06/08 12:02:14;;;;;;;1.60;0.60;;;;;;;24.44;40.03;98195.34;5057036;28;20122;-84
2022/06/08 12:04:45;;;;;;;3.25;0.68;;;;;;;24.28;42.43;98205.84;5059326;28;20045;-84
2022/06/08 12:07:36;;;;;;;2.15;0.60;;;;;;;24.00;41.06;98210.38;5079061;28;20150;-88
2022/06/08 12:10:08;;;;;;;1.73;0.50;;;;;;;23.97;41.82;98205.44;5067303;28;20056;-86
2022/06/08 12:12:37;;;;;;;4.43;0.70;;;;;;;24.38;41.16;98194.59;5068909;28;20040;-89
2022/06/08 12:15:43;;;;;;;3.03;0.70;;;;;;;24.64;42.32;98199.78;5061793;28;20041;-89
2022/06/08 12:18:20;;;;;;;7.40;0.80;;;;;;;24.62;38.53;98206.81;5076907;28;20060;-84
2022/06/08 12:20:47;;;;;;;1.98;0.68;;;;;;;24.27;38.28;98195.88;5066786;28;20105;-84
2022/06/08 12:23:15;;;;;;;3.13;1.00;;;;;;;24.34;39.88;98193.56;5067897;28;20484;-84
2022/06/08 12:25:54;;;;;;;3.38;0.90;;;;;;;24.21;43.49;98205.41;5074348;28;20074;-84
2022/06/08 12:28:21;;;;;;;2.63;0.68;;;;;;;23.64;38.90;98172.75;5068099;28;20040;-84
2022/06/08 12:30:57;;;;;;;1.88;0.68;;;;;;;23.79;42.73;98187.56;5074663;28;20056;-85
2022/06/08 12:33:29;;;;;;;2.15;1.20;;;;;;;23.90;43.65;98199.41;5059100;28;20131;-84
2022/06/08 12:35:57;;;;;;;5.85;0.70;;;;;;;23.90;41.52;98160.56;5069694;28;20037;-83
2022/06/08 12:38:26;;;;;;;2.15;0.80;;;;;;;23.93;41.51;98158.00;5074683;28;20053;-84
2022/06/08 12:41:11;;;;;;;3.13;0.70;;;;;;;24.56;41.83;98186.56;5057323;28;20107;-83
2022/06/08 12:44:20;;;;;;;3.65;0.63;;;;;;;24.81;39.69;98159.53;5054347;28;20049;-84
2022/06/08 12:46:57;;;;;;;1.50;0.60;;;;;;;25.23;36.04;98146.56;5056146;28;20076;-86
2022/06/08 12:49:26;;;;;;;1.77;0.80;;;;;;;26.14;35.61;98170.97;5055728;28;20049;-85
2022/06/08 12:52:02;;;;;;;3.80;0.90;;;;;;;26.77;33.50;98153.69;5063332;28;20041;-85
2022/06/08 12:54:53;;;;;;;2.35;0.65;;;;;;;27.29;36.48;98164.34;5069915;28;20299;-86
2022/06/08 12:57:38;;;;;;;9.02;0.80;;;;;;;26.56;33.60;98145.78;5063053;28;20053;-86
2022/06/08 13:00:11;;;;;;;3.97;1.13;;;;;;;26.23;34.39;98142.38;5093780;28;20058;-86
2022/06/08 13:02:50;;;;;;;7.28;0.93;;;;;;;25.73;34.38;98171.78;5095404;28;20089;-86
2022/06/08 13:05:20;;;;;;;1.15;0.60;;;;;;;25.23;34.73;98144.63;5095624;28;20044;-86
2022/06/08 13:08:01;;;;;;;2.42;0.93;;;;;;;25.44;35.90;98159.00;5095471;28;20506;-86
2022/06/08 13:10:32;;;;;;;3.90;0.70;;;;;;;25.56;35.78;98174.34;5071494;28;20064;-85
2022/06/08 13:13:03;;;;;;;2.83;0.82;;;;;;;25.80;38.42;98137.97;5063946;28;20492;-84
2022/06/08 13:15:36;;;;;;;2.92;0.85;;;;;;;25.75;35.56;98147.25;5080040;28;20472;-84
2022/06/08 13:18:05;;;;;;;3.08;1.17;;;;;;;25.70;35.46;98152.94;5068177;28;20052;-84
2022/06/08 13:20:36;;;;;;;1.92;0.68;;;;;;;25.99;37.90;98159.34;5054910;28;20461;-82
2022/06/08 13:23:03;;;;;;;3.55;0.90;;;;;;;26.22;35.91;98124.84;5057339;28;20496;-82
2022/06/08 13:25:36;;;;;;;7.22;0.82;;;;;;;27.18;34.20;98147.06;5054700;28;20132;-86
2022/06/08 13:28:17;;;;;;;3.65;0.70;;;;;;;27.23;32.95;98126.56;5079290;28;20052;-85
2022/06/08 13:30:48;;;;;;;4.63;0.73;;;;;;;26.75;34.93;98125.28;5074649;28;20106;-84
2022/06/08 13:36:21;;;;;;;3.92;1.15;;;;;;;25.91;35.76;98114.34;5074290;28;20431;-82
2022/06/08 13:38:48;;;;;;;4.50;0.75;;;;;;;26.16;34.20;98128.88;5074872;28;20102;-86
2022/06/08 13:41:19;;;;;;;14.02;1.08;;;;;;;26.05;36.02;98116.34;5061717;28;20411;-85
2022/06/08 13:43:47;;;;;;;2.13;0.95;;;;;;;25.94;37.96;98132.38;5058846;28;20120;-85
2022/06/08 13:46:21;;;;;;;1.25;0.60;;;;;;;26.18;37.42;98125.78;5072712;28;20041;-85
2022/06/08 13:48:49;;;;;;;1.75;0.70;;;;;;;25.29;33.76;98122.25;5074487;28;20106;-85
2022/06/08 13:51:15;;;;;;;2.45;0.70;;;;;;;25.59;35.02;98115.31;5074174;28;20395;-86
2022/06/08 13:53:42;;;;;;;2.00;0.75;;;;;;;25.61;38.11;98122.22;5072819;28;20411;-85
2022/06/08 13:56:12;;;;;;;0.95;0.60;;;;;;;25.25;40.57;98130.41;5077468;28;20040;-83
2022/06/08 13:58:41;;;;;;;1.45;0.70;;;;;;;24.86;42.09;98123.31;5096845;28;20061;-85
2022/06/08 14:01:17;;;;;;;1.77;0.60;;;;;;;24.51;39.52;98120.78;5073884;28;20122;-85
2022/06/08 14:03:45;;;;;;;2.42;0.90;;;;;;;24.38;42.32;98127.94;5074408;28;20090;-85
2022/06/08 14:14:52;;;;;;;7.50;5.95;;;;;;;24.03;47.49;98113.44;5073916;28;20055;-86
2022/06/08 14:17:39;;;;;;;3.80;2.50;;;;;;;24.02;46.97;98114.56;5071858;28;20442;-85
2022/06/08 14:20:29;;;;;;;1.77;1.02;;;;;;;24.18;47.69;98123.50;5074094;28;20055;-86
2022/06/08 14:23:04;;;;;;;3.05;0.90;;;;;;;24.20;45.62;98095.44;5070308;28;20098;-84
2022/06/08 14:25:34;;;;;;;3.88;0.80;;;;;;;24.48;42.85;98096.41;5064733;28;20052;-86
2022/06/08 14:28:04;;;;;;;4.97;1.52;;;;;;;24.59;41.59;98108.19;5053734;28;20052;-85
2022/06/08 14:30:32;;;;;;;2.15;0.75;;;;;;;24.63;41.31;98103.69;5053955;28;20804;-85
2022/06/08 14:33:02;;;;;;;1.08;0.65;;;;;;;24.60;41.82;98097.91;5059073;28;20048;-84
2022/06/08 14:35:31;;;;;;;3.10;0.70;;;;;;;24.70;44.95;98101.31;5066374;28;20049;-84
2022/06/08 14:38:01;;;;;;;4.00;0.93;;;;;;;24.80;40.09;98113.44;5053558;28;20131;-84
2022/06/08 14:40:35;;;;;;;4.63;1.23;;;;;;;24.82;39.09;98105.59;5078312;28;20101;-85
2022/06/08 14:43:04;;;;;;;2.22;0.80;;;;;;;24.74;40.34;98107.13;5065635;28;20128;-87
2022/06/08 14:45:34;;;;;;;15.20;1.60;;;;;;;24.28;39.09;98105.03;5054525;28;20041;-86
2022/06/08 14:48:00;;;;;;;2.65;0.70;;;;;;;24.33;41.98;98105.81;5065872;28;20040;-84
2022/06/08 14:50:31;;;;;;;5.63;0.85;;;;;;;24.02;42.83;98092.34;5073260;28;20063;-85
2022/06/08 14:53:00;;;;;;;5.38;1.08;;;;;;;23.92;42.15;98114.72;5071636;28;20492;-85
2022/06/08 14:58:19;;;;;;;6.25;0.90;;;;;;;23.43;41.67;98110.31;5061891;28;20109;-86
2022/06/08 15:00:48;;;;;;;6.45;1.38;;;;;;;23.04;42.03;98109.31;5054369;28;20518;-85
2022/06/08 15:03:17;;;;;;;5.18;1.20;;;;;;;23.04;41.91;98106.53;5082283;28;20128;-85
2022/06/08 15:05:45;;;;;;;6.90;1.00;;;;;;;23.13;46.75;98132.53;5088657;28;20048;-85
2022/06/08 15:08:16;;;;;;;4.50;0.90;;;;;;;22.90;47.74;98136.88;5093256;28;20043;-88
2022/06/08 15:13:28;;;;;;;10.68;1.02;;;;;;;22.09;60.91;98169.53;5072756;28;20067;-87
2022/06/08 15:16:00;;;;;;;3.05;0.75;;;;;;;21.42;68.71;98197.38;5072179;28;20436;-89
2022/06/08 15:18:27;;;;;;;4.30;1.20;;;;;;;20.91;72.05;98183.63;5072269;28;20317;-89
2022/06/08 15:20:55;;;;;;;5.05;1.52;;;;;;;20.62;74.35;98220.03;5071093;28;20101;-89
2022/06/08 15:23:21;;;;;;;5.78;1.08;;;;;;;20.49;77.56;98218.66;5070239;28;20051;-88
2022/06/08 15:25:51;;;;;;;4.97;1.13;;;;;;;19.53;79.17;98248.28;5072473;28;20194;-85
2022/06/08 15:28:22;;;;;;;3.63;1.17;;;;;;;18.89;86.99;98263.75;5072363;28;20079;-84
2022/06/08 15:30:49;;;;;;;4.43;1.48;;;;;;;18.30;92.77;98245.22;5052261;28;20057;-84
2022/06/08 15:33:20;;;;;;;10.13;1.00;;;;;;;18.15;96.47;98270.63;5056802;28;20401;-85
2022/06/08 15:35:56;;;;;;;6.35;1.50;;;;;;;18.09;100.00;98282.66;5074693;28;20076;-84
2022/06/08 15:38:23;;;;;;;3.63;1.67;;;;;;;18.11;100.00;98269.47;5059770;28;20139;-85
2022/06/08 15:40:52;;;;;;;9.13;3.45;;;;;;;18.09;100.00;98293.66;5072023;28;20040;-84
2022/06/08 15:43:19;;;;;;;5.53;1.38;;;;;;;17.84;100.00;98267.47;5070570;28;20053;-84
2022/06/08 15:45:46;;;;;;;4.65;1.40;;;;;;;18.07;100.00;98295.84;5068568;28;20060;-84
2022/06/08 15:48:13;;;;;;;12.75;2.17;;;;;;;17.80;100.00;98282.81;5067493;28;20060;-84
2022/06/08 15:50:47;;;;;;;7.90;1.38;;;;;;;17.83;100.00;98307.03;5048808;28;20057;-83
2022/06/08 15:53:19;;;;;;;5.18;1.90;;;;;;;17.72;100.00;98280.47;5046296;28;20068;-83
2022/06/08 15:55:46;;;;;;;5.57;1.50;;;;;;;17.73;100.00;98295.88;5062701;28;20052;-82
2022/06/08 15:58:17;;;;;;;7.30;2.00;;;;;;;17.67;100.00;98278.47;5077404;28;20048;-84
2022/06/08 16:00:43;;;;;;;5.13;1.73;;;;;;;17.40;100.00;98290.16;5064798;28;20396;-84
2022/06/08 16:03:10;;;;;;;4.20;1.63;;;;;;;17.51;100.00;98291.19;5063004;28;20048;-82
2022/06/08 16:05:39;;;;;;;6.10;1.70;;;;;;;17.56;100.00;98285.75;5072299;28;20481;-83
2022/06/08 16:08:08;;;;;;;6.53;1.87;;;;;;;17.42;100.00;98276.19;5058178;28;20053;-84
2022/06/08 16:10:36;;;;;;;8.10;2.03;;;;;;;17.41;100.00;98304.75;5064012;28;20530;-84
2022/06/08 16:13:04;;;;;;;4.63;1.77;;;;;;;17.38;100.00;98283.28;5074329;28;20051;-84
2022/06/08 16:15:32;;;;;;;5.57;1.88;;;;;;;17.42;100.00;98292.66;5071567;28;20415;-84
2022/06/08 16:17:59;;;;;;;6.93;2.25;;;;;;;17.21;100.00;98288.75;5073099;28;20056;-84
2022/06/08 16:20:28;;;;;;;3.60;1.90;;;;;;;17.37;100.00;98295.34;5062248;28;20116;-84
2022/06/08 16:22:55;;;;;;;5.47;2.17;;;;;;;17.21;100.00;98294.25;5072403;28;20040;-84
2022/06/08 16:25:26;;;;;;;3.90;1.90;;;;;;;17.26;100.00;98313.56;5070053;28;20064;-84
2022/06/08 16:27:54;;;;;;;7.75;2.50;;;;;;;17.29;100.00;98311.16;5068158;28;20081;-85
2022/06/08 16:30:23;;;;;;;8.15;1.88;;;;;;;17.27;100.00;98313.31;5072457;28;20060;-84
2022/06/08 16:32:50;;;;;;;5.17;1.87;;;;;;;17.25;100.00;98311.91;5071348;28;20059;-83
2022/06/08 16:35:18;;;;;;;5.53;2.00;;;;;;;17.24;100.00;98302.03;5072249;28;20047;-83
2022/06/08 16:37:45;;;;;;;3.75;1.58;;;;;;;17.09;100.00;98300.66;5071208;28;20050;-83
2022/06/08 16:40:14;;;;;;;2.20;1.70;;;;;;;17.10;100.00;98316.06;5081469;28;20051;-83
2022/06/08 16:42:42;;;;;;;2.65;1.67;;;;;;;16.95;100.00;98311.13;5073547;28;20131;-82
2022/06/08 16:45:10;;;;;;;9.80;2.28;;;;;;;16.93;100.00;98318.78;5071991;28;20044;-84
2022/06/08 16:47:37;;;;;;;2.53;1.20;;;;;;;16.64;100.00;98298.72;5060216;28;20052;-84
2022/06/08 16:50:05;;;;;;;4.82;1.88;;;;;;;16.66;100.00;98303.97;5069639;28;20556;-84
2022/06/08 16:52:32;;;;;;;4.57;1.63;;;;;;;16.79;100.00;98320.97;5075377;28;20055;-84
2022/06/08 16:54:59;;;;;;;3.45;1.80;;;;;;;16.79;100.00;98317.41;5065871;28;20048;-84
2022/06/08 17:00:15;;;;;;;5.65;1.58;;;;;;;17.01;100.00;98312.03;5069636;28;20056;-84
2022/06/08 17:02:42;;;;;;;6.38;1.63;;;;;;;16.91;100.00;98306.41;5071188;28;20044;-84
2022/06/08 17:05:10;;;;;;;6.70;1.83;;;;;;;16.89;100.00;98306.66;5067330;28;20455;-84
2022/06/08 17:07:37;;;;;;;8.20;1.55;;;;;;;16.78;100.00;98285.53;5078639;28;20044;-82
2022/06/08 17:10:05;;;;;;;5.43;1.88;;;;;;;16.55;100.00;98287.31;5067606;28;20464;-82
2022/06/08 17:12:32;;;;;;;5.05;1.35;;;;;;;16.83;100.00;98309.50;5070858;28;20468;-81
2022/06/08 17:14:59;;;;;;;5.70;1.40;;;;;;;16.64;100.00;98285.00;5076535;28;20052;-81
2022/06/08 17:17:30;;;;;;;6.45;1.55;;;;;;;16.73;100.00;98307.41;5052515;28;20053;-83
2022/06/08 17:19:57;;;;;;;5.15;1.58;;;;;;;16.65;100.00;98283.94;5051271;28;20090;-82
2022/06/08 17:22:24;;;;;;;6.22;1.50;;;;;;;16.84;100.00;98305.69;5079446;28;20507;-82
2022/06/08 17:24:51;;;;;;;4.53;1.40;;;;;;;16.61;100.00;98308.28;5064513;28;20063;-82
2022/06/08 17:27:18;;;;;;;3.10;1.20;;;;;;;16.74;100.00;98307.16;5069129;28;20044;-82
2022/06/08 17:29:45;;;;;;;5.75;1.40;;;;;;;16.66;100.00;98280.09;5070148;28;20045;-82
2022/06/08 17:32:12;;;;;;;5.32;1.42;;;;;;;16.76;100.00;98312.41;5050706;28;20056;-82
2022/06/08 17:34:41;;;;;;;4.13;1.20;;;;;;;16.66;100.00;98295.75;5061173;28;20044;-82
2022/06/08 17:37:09;;;;;;;2.47;0.90;;;;;;;16.61;100.00;98275.34;5059155;28;20045;-83
2022/06/08 17:39:37;;;;;;;3.85;1.30;;;;;;;16.73;100.00;98313.72;5071174;28;20049;-83
2022/06/08 17:42:23;;;;;;;4.20;1.50;;;;;;;16.72;100.00;98308.47;5052999;28;20505;-82
2022/06/08 17:44:51;;;;;;;4.50;1.40;;;;;;;16.65;100.00;98297.66;5038667;28;20075;-82
2022/06/08 17:47:20;;;;;;;4.95;1.42;;;;;;;16.56;100.00;98274.41;5048437;28;20672;-82
2022/06/08 17:49:49;;;;;;;8.05;2.22;;;;;;;16.68;100.00;98294.44;5064709;28;20044;-84
2022/06/08 17:52:16;;;;;;;2.17;1.30;;;;;;;16.70;100.00;98292.25;5061285;28;20144;-82
2022/06/08 17:54:42;;;;;;;3.47;1.58;;;;;;;16.62;100.00;98290.75;5068976;28;20040;-82
2022/06/08 17:57:09;;;;;;;5.03;2.00;;;;;;;16.72;100.00;98309.31;5074966;28;20057;-81
2022/06/08 17:59:40;;;;;;;5.20;1.35;;;;;;;16.70;100.00;98300.50;5063673;28;20051;-82
2022/06/08 18:02:15;;;;;;;5.22;1.13;;;;;;;16.67;100.00;98305.66;5067129;28;20056;-83
2022/06/08 18:04:43;;;;;;;3.85;1.38;;;;;;;16.76;100.00;98306.91;5061452;28;20045;-83
2022/06/08 18:07:13;;;;;;;5.65;1.60;;;;;;;16.60;100.00;98316.75;5065923;28;20541;-82
2022/06/08 18:09:41;;;;;;;3.15;2.17;;;;;;;16.66;100.00;98314.94;5075016;28;20040;-83
2022/06/08 18:12:09;;;;;;;4.35;1.50;;;;;;;16.72;100.00;98308.47;5067530;28;20053;-81
2022/06/08 18:14:38;;;;;;;2.80;1.40;;;;;;;16.48;100.00;98280.31;5078195;28;20113;-84
2022/06/08 18:17:06;;;;;;;2.75;1.27;;;;;;;16.53;100.00;98318.81;5068534;28;20462;-82
2022/06/08 18:19:33;;;;;;;3.03;1.70;;;;;;;16.40;100.00;98304.31;5066979;28;20075;-83
2022/06/08 18:22:00;;;;;;;2.92;1.70;;;;;;;16.59;100.00;98324.16;5064877;28;20102;-83
2022/06/08 18:24:31;;;;;;;3.80;1.77;;;;;;;16.49;100.00;98298.44;5066970;28;20399;-83
2022/06/08 18:27:05;;;;;;;5.22;1.80;;;;;;;16.56;100.00;98305.44;5066898;28;20049;-83
2022/06/08 18:29:35;;;;;;;7.57;2.67;;;;;;;16.38;100.00;98295.50;5081889;28;20087;-82
2022/06/08 18:32:03;;;;;;;3.95;1.60;;;;;;;16.39;100.00;98296.31;5077454;28;20493;-82
2022/06/08 18:34:30;;;;;;;2.75;1.40;;;;;;;16.50;100.00;98309.19;5079194;28;20621;-83
2022/06/08 18:36:57;;;;;;;3.17;1.50;;;;;;;16.26;100.00;98297.47;5085730;28;20411;-81
2022/06/08 18:39:24;;;;;;;4.03;1.85;;;;;;;16.26;100.00;98317.47;5052336;28;20041;-82
2022/06/08 18:41:52;;;;;;;4.78;1.70;;;;;;;16.23;100.00;98303.44;5071438;28;20134;-82
2022/06/08 18:44:19;;;;;;;4.05;1.77;;;;;;;16.20;100.00;98299.25;5058744;28;20051;-82
2022/06/08 18:46:45;;;;;;;6.10;2.00;;;;;;;16.13;100.00;98311.44;5066619;28;20056;-81
2022/06/08 18:49:15;;;;;;;6.07;1.63;;;;;;;16.07;100.00;98294.84;5051148;28;20060;-80
2022/06/08 18:51:44;;;;;;;2.83;1.60;;;;;;;16.15;100.00;98285.41;5060532;28;20052;-82
2022/06/08 18:54:14;;;;;;;4.68;1.85;;;;;;;16.19;100.00;98291.28;5076090;28;20060;-82
2022/06/08 18:56:40;;;;;;;3.43;1.87;;;;;;;16.15;100.00;98304.59;5063268;28;20131;-82
2022/06/08 18:59:08;;;;;;;3.58;1.50;;;;;;;15.92;100.00;98289.88;5072645;28;20679;-82
2022/06/08 19:01:35;;;;;;;3.45;1.50;;;;;;;16.14;100.00;98307.59;5063457;28;20070;-83
2022/06/08 19:04:02;;;;;;;3.47;1.80;;;;;;;16.20;100.00;98295.66;5058546;28;20044;-84
2022/06/08 19:06:30;;;;;;;2.75;1.40;;;;;;;16.08;100.00;98277.34;5051857;28;20060;-82
2022/06/08 19:08:57;;;;;;;4.18;1.63;;;;;;;16.02;100.00;98297.50;5074690;28;20052;-82
2022/06/08 19:11:25;;;;;;;3.53;1.40;;;;;;;15.90;100.00;98291.22;5077082;28;20206;-82
2022/06/08 19:13:52;;;;;;;7.20;1.65;;;;;;;15.93;100.00;98288.81;5062759;28;20051;-82
2022/06/08 19:16:22;;;;;;;3.10;1.60;;;;;;;15.82;100.00;98278.72;5074956;28;20491;-82
2022/06/08 19:21:34;;;;;;;4.05;1.65;;;;;;;16.03;100.00;98301.91;5058962;28;20051;-83
2022/06/08 19:24:01;;;;;;;6.68;1.83;;;;;;;15.92;100.00;98289.06;5076573;28;20041;-83
2022/06/08 19:26:31;;;;;;;6.80;2.70;;;;;;;16.01;100.00;98298.56;5065733;28;20046;-84
2022/06/08 19:28:59;;;;;;;6.30;1.70;;;;;;;16.10;100.00;98302.59;5071900;28;20053;-81
2022/06/08 19:31:29;;;;;;;2.25;1.52;;;;;;;15.81;100.00;98276.22;5067139;28;20479;-83
2022/06/08 19:33:57;;;;;;;2.42;1.67;;;;;;;15.94;100.00;98308.81;5067657;28;20127;-83
2022/06/08 19:36:26;;;;;;;6.72;4.03;;;;;;;15.73;100.00;98297.41;5072444;28;20070;-83
2022/06/08 19:38:53;;;;;;;4.00;1.70;;;;;;;15.88;100.00;98305.16;5065892;28;20044;-82
2022/06/08 19:41:22;;;;;;;3.42;2.00;;;;;;;15.90;100.00;98303.00;5078551;28;20051;-83
2022/06/08 19:43:49;;;;;;;4.65;2.00;;;;;;;15.87;100.00;98303.50;5063138;28;20383;-83
2022/06/08 19:46:16;;;;;;;5.07;1.55;;;;;;;15.81;100.00;98307.19;5066765;28;20057;-83
2022/06/08 19:48:44;;;;;;;7.97;1.67;;;;;;;15.58;100.00;98294.28;5065424;28;20411;-83
2022/06/08 19:51:11;;;;;;;4.95;1.73;;;;;;;15.79;100.00;98316.72;5065515;28;20045;-84
2022/06/08 19:53:39;;;;;;;2.42;1.88;;;;;;;15.78;100.00;98317.78;5060252;28;20048;-84
2022/06/08 19:56:08;;;;;;;2.63;1.40;;;;;;;15.80;100.00;98321.13;5074345;28;20048;-84
2022/06/08 19:58:35;;;;;;;6.22;2.90;;;;;;;15.71;100.00;98326.09;5053740;28;20045;-84
2022/06/08 20:01:02;;;;;;;7.47;3.08;;;;;;;15.66;100.00;98315.03;5065389;28;20082;-84